Grenora, ND (58845)

10:49 AM CDT on July 30, 2014 (GMT -0500)
KNDALAMO3 Elev 2090 ft | 48.49 °N, 103.51 °W | Change Station

Current weather conditions updated 7 minutes ago

Clear
Clear
72.0 °F
Feels Like 76 °F
N
9.0
Wind Variable Wind from North
Gusts 11.0 mph

Today is forecast to be Warmer than yesterday.

Today
High -- | Low -- °F
--% Chance of Precip.
Yesterday
High -- | Low -- °F
Precip. -- in
6:27 AM 9:36 PM
Waxing Crescent, 12% visible
Pressure 30.17 in
Visibility 8.0 miles
Clouds Clear
Heat Index 76 °F
Dew Point 56 °F
Humidity 57%
Rainfall 0.00 in
Snow Depth Not available.
UV 3.2 out of 12
Pollen 6.80 out of 12
Air Quality Not available.
Flu Activity Not available.
METAR KISN 301452Z AUTO VRB03KT 8SM CLR 21/14 A3020 RMK AO2 SLP217 T02110144 51003

More Conditions Fewer Conditions

Pressure 30.17 in
Visibility 8.0 miles
Clouds Clear
Heat Index 76 °F
Dew Point 56 °F
Humidity 57%
Rainfall 0.00 in
Snow Depth Not available.
UV 3.2 out of 12
Pollen 6.80 out of 12
Air Quality Not available.
Flu Activity Not available.
METAR KISN 301452Z AUTO VRB03KT 8SM CLR 21/14 A3020 RMK AO2 SLP217 T02110144 51003

More Conditions Fewer Conditions

10-Day Weather Forecast

Almanac

Astronomy

Jul. 30, 2014 Rise Set
Actual Time 6:27 AM CDT 9:36 PM CDT
Civil Twilight 5:49 AM CDT 10:13 PM CDT
Nautical Twilight 5:01 AM CDT 11:01 PM CDT
Astronomical Twilight 3:59 AM CDT 12:02 AM CDT
Moon 10:23 AM CDT 10:55 PM CDT
Length of Visible Light 16h 23m
Length of Day
15h 08m
Tomorrow will be 2m 43s shorter.
Waxing Crescent, 12% of the Moon is Illuminated
Today
Waxing Crescent
Aug 3
First Quarter
Aug 10
Full
Aug 17
Last Quarter
Aug 25
New

Today's Extremes

State Highs State Lows

Community

WunderPhotos

Upload Photos

1,739,115 photos uploaded!

WunderBlogs® & News

By Dr. Jeff Masters
Director of Meteorology, Weather Underground
By Kari Strenfel
Meteorologist, Weather Underground
By Christopher C. Burt
Weather Historian, Weather Underground
July 30, 2014
July 30, 2014
July 30, 2014

Nearby

Snow Depth

Station Depth Elevation
No new snow has been reported.

Earthquake Activity

City Distance Mag. Time & Date
No recent earthquake activity has been reported nearby.
Minimum magnitude displayed is 2.5.

Coastal Water Temperatures

Place Temperature
No Stations Reporting

Nearby Weather Stations

Station Location Temp. Heat Index Dew Point Humidity Wind Precip. Elev Updated Type
Alamo, ND 72.0 °F 76 °F 56 °F 57% North  at  9.0 mph 0.00 in / hr 2090 ft 10:41 AM CDT Normal
MesoWest Comertown Turn-Off MT-5 MP 13.4, Westby, MT 72 °F 77 °F 50 °F 45% SSE  at  1 mph 0.00 in / hr 2100 ft 8:43 AM MDT MADIS

Show More Stations Show Fewer Stations